createdAt,value
2023-01-19T00:00:17.743Z,97.25
2023-01-19T00:01:21.731Z,97.32
2023-01-19T00:02:25.300Z,97.25
2023-01-19T00:04:01.170Z,97.43
2023-01-19T00:05:04.791Z,97.59
2023-01-19T00:06:08.584Z,97.36
2023-01-19T00:07:45.094Z,97.35
2023-01-19T00:08:49.088Z,97.41
2023-01-19T00:09:52.873Z,97.23
2023-01-19T00:11:28.847Z,97.22
2023-01-19T00:12:32.452Z,97.34
2023-01-19T00:13:36.026Z,97.33
2023-01-19T00:15:11.791Z,97.29
2023-01-19T00:16:15.597Z,97.40
2023-01-19T00:17:19.501Z,97.32
2023-01-19T00:18:57.204Z,97.13
2023-01-19T00:20:00.831Z,97.09
2023-01-19T00:21:04.478Z,97.08
2023-01-19T00:22:40.480Z,97.18
2023-01-19T00:23:44.765Z,97.40
2023-01-19T00:24:48.180Z,97.55
2023-01-19T00:26:24.137Z,97.47
2023-01-19T00:27:27.416Z,97.44
2023-01-19T00:28:31.005Z,97.48
2023-01-19T00:30:06.663Z,97.22
2023-01-19T00:31:10.246Z,97.14
2023-01-19T00:32:14.726Z,97.22
2023-01-19T00:33:51.610Z,97.27
2023-01-19T00:34:55.439Z,97.41
2023-01-19T00:35:58.651Z,97.34
2023-01-19T00:37:34.263Z,97.45
2023-01-19T00:38:37.707Z,97.59
2023-01-19T00:39:41.226Z,97.52
2023-01-19T00:41:16.895Z,97.51
2023-01-19T00:42:20.471Z,97.45
2023-01-19T00:43:24.009Z,97.50
2023-01-19T00:44:59.778Z,97.54
2023-01-19T00:46:03.496Z,97.52
2023-01-19T00:47:07.303Z,97.64
2023-01-19T00:48:42.959Z,97.66
2023-01-19T00:49:46.645Z,97.61
2023-01-19T00:50:50.176Z,97.62
2023-01-19T00:52:25.928Z,97.53
2023-01-19T00:53:29.783Z,97.52
2023-01-19T00:54:33.531Z,97.52
2023-01-19T00:56:09.261Z,97.60
2023-01-19T00:57:12.811Z,97.59
2023-01-19T00:58:16.293Z,97.69
2023-01-19T00:59:52.007Z,97.66
2023-01-19T01:00:18.533Z,97.63
2023-01-19T01:01:22.385Z,97.67
2023-01-19T01:02:50.804Z,97.63
2023-01-19T01:04:27.569Z,97.70
2023-01-19T01:05:31.083Z,97.66
2023-01-19T01:06:34.774Z,97.61
2023-01-19T01:08:10.563Z,97.68
2023-01-19T01:09:14.164Z,97.63
2023-01-19T01:10:17.799Z,97.57
2023-01-19T01:11:53.585Z,97.60
2023-01-19T01:13:28.105Z,97.65
2023-01-19T01:14:32.752Z,97.51
2023-01-19T01:16:08.786Z,97.45
2023-01-19T01:17:12.644Z,97.48
2023-01-19T01:18:16.049Z,97.45
2023-01-19T01:19:51.743Z,97.58
2023-01-19T01:20:56.336Z,97.55
2023-01-19T01:21:59.948Z,97.45
2023-01-19T01:23:35.637Z,97.51
2023-01-19T01:24:39.231Z,97.56
2023-01-19T01:25:42.812Z,97.56
2023-01-19T01:27:20.102Z,97.63
2023-01-19T01:28:23.667Z,97.69
2023-01-19T01:29:27.263Z,97.70
2023-01-19T01:31:02.809Z,97.68
2023-01-19T01:32:06.490Z,97.78
2023-01-19T01:33:10.192Z,97.78
2023-01-19T01:35:11.355Z,97.82
2023-01-19T01:36:15.114Z,97.89
2023-01-19T01:37:18.613Z,97.87
2023-01-19T01:38:54.227Z,97.87
2023-01-19T01:39:57.874Z,97.85
2023-01-19T01:41:01.648Z,97.88
2023-01-19T01:42:48.241Z,97.98
2023-01-19T01:43:54.092Z,98.04
2023-01-19T01:44:57.690Z,98.10
2023-01-19T01:46:33.780Z,98.08
2023-01-19T01:47:37.096Z,98.08
2023-01-19T01:48:40.814Z,98.17
2023-01-19T01:50:16.407Z,98.13
2023-01-19T01:51:20.116Z,98.18
2023-01-19T01:52:23.696Z,98.18
2023-01-19T01:54:20.100Z,98.30
2023-01-19T01:55:23.799Z,98.34
2023-01-19T01:56:27.148Z,98.45
2023-01-19T01:58:02.972Z,98.44
2023-01-19T01:59:06.185Z,98.38
2023-01-19T02:00:18.238Z,98.24
2023-01-19T02:01:22.280Z,98.22
2023-01-19T02:02:28.057Z,98.20
2023-01-19T02:04:05.040Z,98.32
2023-01-19T02:05:08.266Z,98.23
2023-01-19T02:06:11.889Z,98.13
2023-01-19T02:07:47.661Z,98.10
2023-01-19T02:08:51.222Z,98.10
2023-01-19T02:09:54.725Z,98.13
2023-01-19T02:11:30.431Z,98.15
2023-01-19T02:12:34.151Z,98.12
2023-01-19T02:13:37.965Z,98.02
2023-01-19T02:15:13.232Z,97.95
2023-01-19T02:16:17.004Z,97.93
2023-01-19T02:17:20.680Z,98.02
2023-01-19T02:18:56.228Z,98.05
2023-01-19T02:19:59.509Z,97.92
2023-01-19T02:21:02.955Z,97.89
2023-01-19T02:22:38.686Z,97.92
2023-01-19T02:23:42.855Z,97.84
2023-01-19T02:24:46.330Z,97.77
2023-01-19T02:26:22.194Z,97.74
2023-01-19T02:27:25.808Z,97.81
2023-01-19T02:28:29.363Z,97.78
2023-01-19T02:30:05.109Z,97.77
2023-01-19T02:31:09.454Z,97.71
2023-01-19T02:32:12.999Z,97.65
2023-01-19T02:33:49.284Z,97.74
2023-01-19T02:34:52.742Z,97.70
2023-01-19T02:35:56.216Z,97.73
2023-01-19T02:37:31.999Z,97.68
2023-01-19T02:38:35.732Z,97.71
2023-01-19T02:39:39.216Z,97.68
2023-01-19T02:41:14.998Z,97.57
2023-01-19T02:42:18.346Z,97.54
2023-01-19T02:43:22.111Z,97.30
2023-01-19T02:44:58.010Z,97.15
2023-01-19T02:46:01.821Z,96.93
2023-01-19T02:47:05.520Z,96.87
2023-01-19T02:48:41.216Z,96.87
2023-01-19T02:49:44.865Z,96.81
2023-01-19T02:50:48.359Z,96.96
2023-01-19T02:52:24.194Z,97.06
2023-01-19T02:53:27.827Z,97.22
2023-01-19T02:54:31.325Z,97.30
2023-01-19T02:56:07.281Z,97.45
2023-01-19T02:57:10.786Z,97.48
2023-01-19T02:58:14.325Z,97.75
2023-01-19T02:59:50.044Z,97.91
2023-01-19T03:00:17.834Z,97.91
2023-01-19T03:01:21.754Z,97.87
2023-01-19T03:02:26.364Z,97.87
2023-01-19T03:04:02.424Z,97.82
2023-01-19T03:05:05.977Z,97.87
2023-01-19T03:06:09.475Z,97.84
2023-01-19T03:07:44.938Z,97.90
2023-01-19T03:08:48.519Z,98.01
2023-01-19T03:09:51.825Z,98.03
2023-01-19T03:11:27.905Z,98.04
2023-01-19T03:12:31.368Z,98.05
2023-01-19T03:13:35.323Z,98.10
2023-01-19T03:15:14.209Z,98.12
2023-01-19T03:16:18.439Z,98.00
2023-01-19T03:17:22.449Z,98.00
2023-01-19T03:18:58.180Z,98.03
2023-01-19T03:20:01.651Z,98.05
2023-01-19T03:21:05.126Z,98.19
2023-01-19T03:22:40.695Z,98.18
2023-01-19T03:23:45.040Z,98.37
2023-01-19T03:24:48.500Z,98.40
2023-01-19T03:26:24.376Z,98.41
2023-01-19T03:27:27.901Z,98.24
2023-01-19T03:28:31.481Z,98.24
2023-01-19T03:30:07.347Z,98.36
2023-01-19T03:31:11.141Z,98.31
2023-01-19T03:32:14.639Z,98.35
2023-01-19T03:33:50.963Z,98.45
2023-01-19T03:34:54.470Z,98.41
2023-01-19T03:35:57.915Z,98.40
2023-01-19T03:37:33.711Z,98.38
2023-01-19T03:38:37.301Z,98.36
2023-01-19T03:39:40.907Z,98.48
2023-01-19T03:41:16.808Z,98.54
2023-01-19T03:42:20.479Z,98.53
2023-01-19T03:43:24.401Z,98.47
2023-01-19T03:45:00.042Z,98.51
2023-01-19T03:46:03.248Z,98.51
2023-01-19T03:47:07.005Z,98.54
2023-01-19T03:48:42.469Z,98.64
2023-01-19T03:49:46.135Z,98.68
2023-01-19T03:50:49.673Z,98.60
2023-01-19T03:52:25.319Z,98.62
2023-01-19T03:53:28.844Z,98.68
2023-01-19T03:54:32.380Z,98.65
2023-01-19T03:56:08.243Z,98.55
2023-01-19T03:57:11.333Z,98.58
2023-01-19T03:58:14.982Z,98.51
2023-01-19T03:59:50.612Z,98.48
2023-01-19T04:00:18.496Z,98.48
2023-01-19T04:01:22.294Z,98.54
2023-01-19T04:02:26.982Z,98.56
2023-01-19T04:04:02.753Z,98.55
2023-01-19T04:05:06.387Z,98.56
2023-01-19T04:06:09.735Z,98.56
2023-01-19T04:07:45.198Z,98.52
2023-01-19T04:08:48.657Z,98.63
2023-01-19T04:09:52.092Z,98.59
2023-01-19T04:11:27.873Z,98.51
2023-01-19T04:12:31.310Z,98.48
2023-01-19T04:13:34.958Z,98.49
2023-01-19T04:15:10.534Z,98.45
2023-01-19T04:16:14.290Z,98.51
2023-01-19T04:17:18.144Z,98.55
2023-01-19T04:18:53.693Z,98.46
2023-01-19T04:19:57.265Z,98.52
2023-01-19T04:21:00.731Z,98.48
2023-01-19T04:22:36.128Z,98.41
2023-01-19T04:23:40.199Z,98.43
2023-01-19T04:24:43.749Z,98.46
2023-01-19T04:26:19.790Z,98.43
2023-01-19T04:27:22.967Z,98.47
2023-01-19T04:28:26.450Z,98.50
2023-01-19T04:30:02.334Z,98.48
2023-01-19T04:31:05.687Z,98.46
2023-01-19T04:32:09.703Z,98.41
2023-01-19T04:33:45.824Z,98.41
2023-01-19T04:34:49.364Z,98.38
2023-01-19T04:35:54.452Z,98.34
2023-01-19T04:37:30.355Z,98.27
2023-01-19T04:38:33.827Z,98.23
2023-01-19T04:39:37.288Z,98.26
2023-01-19T04:41:13.102Z,98.32
2023-01-19T04:42:17.667Z,98.42
2023-01-19T04:43:21.163Z,98.48
2023-01-19T04:44:57.013Z,98.63
2023-01-19T04:46:00.733Z,98.65
2023-01-19T04:47:04.622Z,98.88
2023-01-19T04:48:41.326Z,98.68
2023-01-19T04:49:45.840Z,98.60
2023-01-19T04:50:49.366Z,98.60
2023-01-19T04:52:25.041Z,98.55
2023-01-19T04:53:28.523Z,98.46
2023-01-19T04:54:32.187Z,98.38
2023-01-19T04:56:07.810Z,98.40
2023-01-19T04:57:11.448Z,98.43
2023-01-19T04:58:15.024Z,98.47
2023-01-19T04:59:50.796Z,98.48
2023-01-19T05:00:18.224Z,98.44
2023-01-19T05:01:21.982Z,98.36
2023-01-19T05:02:26.255Z,98.44
2023-01-19T05:04:02.126Z,98.50
2023-01-19T05:05:47.005Z,98.41
2023-01-19T05:06:50.516Z,98.50
2023-01-19T05:07:54.271Z,98.43
2023-01-19T05:09:31.929Z,98.39
2023-01-19T05:10:35.455Z,98.40
2023-01-19T05:11:39.172Z,98.31
2023-01-19T05:13:15.211Z,98.38
2023-01-19T05:14:18.756Z,98.44
2023-01-19T05:15:22.354Z,98.35
2023-01-19T05:16:58.112Z,98.36
2023-01-19T05:18:01.696Z,98.30
2023-01-19T05:19:05.286Z,98.24
2023-01-19T05:20:40.853Z,98.19
2023-01-19T05:21:44.548Z,98.23
2023-01-19T05:22:48.156Z,98.16
2023-01-19T05:24:24.362Z,98.24
2023-01-19T05:25:27.716Z,98.17
2023-01-19T05:26:30.758Z,98.18
2023-01-19T05:28:06.444Z,98.16
2023-01-19T05:29:09.847Z,98.13
2023-01-19T05:30:13.427Z,98.16
2023-01-19T05:31:49.695Z,98.16
2023-01-19T05:32:53.604Z,98.09
2023-01-19T05:33:57.482Z,98.08
2023-01-19T05:35:42.037Z,97.98
2023-01-19T05:36:45.654Z,97.99
2023-01-19T05:37:48.945Z,98.12
2023-01-19T05:39:28.110Z,98.05
2023-01-19T05:40:31.571Z,97.93
2023-01-19T05:41:35.069Z,97.91
2023-01-19T05:43:13.329Z,97.86
2023-01-19T05:44:16.641Z,97.86
2023-01-19T05:45:19.959Z,97.83
2023-01-19T05:46:55.870Z,97.87
2023-01-19T05:47:59.341Z,97.82
2023-01-19T05:49:02.827Z,97.79
2023-01-19T05:50:38.533Z,97.75
2023-01-19T05:51:42.182Z,97.68
2023-01-19T05:52:45.609Z,97.65
2023-01-19T05:54:22.088Z,97.53
2023-01-19T05:55:25.515Z,97.54
2023-01-19T05:56:28.792Z,97.53
2023-01-19T05:58:04.415Z,97.54
2023-01-19T05:59:08.026Z,97.50
2023-01-19T06:00:17.634Z,97.40
2023-01-19T06:01:21.200Z,97.39
2023-01-19T06:02:26.829Z,97.43
2023-01-19T06:04:03.132Z,97.46
2023-01-19T06:05:06.718Z,97.51
2023-01-19T06:06:10.036Z,97.38
2023-01-19T06:07:45.856Z,97.36
2023-01-19T06:08:49.186Z,97.44
2023-01-19T06:09:52.699Z,97.40
2023-01-19T06:11:28.234Z,97.23
2023-01-19T06:12:31.535Z,97.23
2023-01-19T06:13:34.875Z,97.28
2023-01-19T06:15:12.057Z,97.22
2023-01-19T06:16:15.889Z,97.18
2023-01-19T06:17:19.537Z,97.14
2023-01-19T06:18:55.374Z,97.13
2023-01-19T06:19:58.577Z,97.11
2023-01-19T06:21:01.834Z,97.04
2023-01-19T06:22:37.556Z,97.09
2023-01-19T06:23:41.689Z,97.10
2023-01-19T06:24:45.196Z,97.15
2023-01-19T06:26:20.856Z,97.27
2023-01-19T06:27:24.578Z,97.24
2023-01-19T06:28:28.285Z,97.27
2023-01-19T06:30:03.710Z,97.21
2023-01-19T06:31:07.462Z,97.25
2023-01-19T06:32:11.261Z,97.17
2023-01-19T06:33:47.680Z,97.02
2023-01-19T06:34:53.226Z,97.03
2023-01-19T06:35:57.248Z,97.00
2023-01-19T06:37:32.547Z,97.07
2023-01-19T06:38:35.838Z,97.08
2023-01-19T06:39:39.427Z,97.11
2023-01-19T06:41:15.135Z,97.32
2023-01-19T06:42:18.821Z,97.33
2023-01-19T06:43:22.151Z,97.29
2023-01-19T06:44:57.656Z,97.24
2023-01-19T06:46:01.066Z,97.23
2023-01-19T06:47:21.764Z,97.22
2023-01-19T06:48:57.444Z,97.23
2023-01-19T06:50:00.918Z,97.17
2023-01-19T06:51:05.736Z,97.19
2023-01-19T06:52:41.258Z,97.16
2023-01-19T06:53:45.321Z,97.15
2023-01-19T06:54:50.974Z,97.21
2023-01-19T06:56:27.473Z,97.19
2023-01-19T06:57:31.462Z,97.32
2023-01-19T06:58:35.448Z,97.22
2023-01-19T07:00:18.341Z,97.29
2023-01-19T07:01:22.071Z,97.33
2023-01-19T07:02:34.297Z,97.41
2023-01-19T07:04:10.651Z,97.29
2023-01-19T07:05:14.447Z,97.22
2023-01-19T07:06:18.058Z,97.17
2023-01-19T07:07:53.975Z,97.24
2023-01-19T07:08:57.151Z,97.20
2023-01-19T07:10:03.649Z,97.20
2023-01-19T07:12:37.833Z,97.02
2023-01-19T07:13:43.700Z,96.98
2023-01-19T07:14:46.977Z,96.87
2023-01-19T07:16:22.762Z,96.82
2023-01-19T07:17:26.278Z,96.76
2023-01-19T07:18:29.443Z,96.69
2023-01-19T07:20:04.982Z,96.68
2023-01-19T07:21:08.425Z,96.66
2023-01-19T07:22:13.581Z,96.62
2023-01-19T07:23:49.932Z,96.70
2023-01-19T07:24:53.051Z,96.75
2023-01-19T07:25:56.510Z,96.80
2023-01-19T07:27:32.077Z,96.74
2023-01-19T07:28:35.573Z,96.82
2023-01-19T07:29:40.104Z,96.79
2023-01-19T07:31:16.063Z,96.77
2023-01-19T07:32:20.577Z,96.85
2023-01-19T07:33:23.980Z,96.82
2023-01-19T07:34:59.831Z,96.93
2023-01-19T07:36:03.111Z,96.97
2023-01-19T07:37:06.280Z,96.92
2023-01-19T07:38:42.085Z,96.89
2023-01-19T07:39:45.481Z,96.91
2023-01-19T07:40:49.180Z,96.99
2023-01-19T07:42:24.899Z,96.97
2023-01-19T07:43:28.645Z,97.00
2023-01-19T07:44:31.929Z,97.00
2023-01-19T07:46:09.215Z,97.05
2023-01-19T07:47:12.991Z,96.95
2023-01-19T07:48:16.621Z,97.01
2023-01-19T07:49:52.247Z,97.19
2023-01-19T07:50:55.551Z,97.16
2023-01-19T07:51:59.665Z,97.11
2023-01-19T07:53:35.224Z,97.10
2023-01-19T07:54:39.128Z,96.97
2023-01-19T07:55:42.516Z,96.98
2023-01-19T07:57:19.952Z,96.94
2023-01-19T07:58:23.334Z,96.90
2023-01-19T07:59:27.213Z,96.77
2023-01-19T08:00:17.969Z,96.75
2023-01-19T08:01:22.041Z,96.72
2023-01-19T08:02:26.944Z,96.72
2023-01-19T08:04:02.496Z,96.66
2023-01-19T08:05:06.216Z,96.62
2023-01-19T08:06:09.572Z,96.59
2023-01-19T08:07:45.589Z,96.57
2023-01-19T08:08:52.375Z,96.59
2023-01-19T08:09:55.789Z,96.55
2023-01-19T08:11:31.370Z,96.54
2023-01-19T08:12:35.112Z,96.56
2023-01-19T08:13:38.717Z,96.52
2023-01-19T08:15:14.322Z,96.62
2023-01-19T08:16:18.065Z,96.66
2023-01-19T08:17:21.659Z,96.74
2023-01-19T08:18:57.446Z,96.87
2023-01-19T08:20:00.726Z,96.78
2023-01-19T08:21:04.346Z,96.67
2023-01-19T08:22:39.817Z,96.79
2023-01-19T08:23:44.265Z,96.75
2023-01-19T08:24:50.241Z,96.62
2023-01-19T08:26:26.205Z,96.67
2023-01-19T08:27:29.901Z,96.65
2023-01-19T08:28:33.329Z,96.75
2023-01-19T08:30:09.480Z,96.69
2023-01-19T08:31:26.883Z,96.61
2023-01-19T08:32:31.147Z,96.68
2023-01-19T08:34:06.766Z,96.46
2023-01-19T08:35:10.074Z,96.44
2023-01-19T08:36:13.642Z,96.37
2023-01-19T08:37:49.009Z,96.29
2023-01-19T08:38:52.615Z,96.25
2023-01-19T08:39:56.115Z,96.30
2023-01-19T08:41:32.138Z,96.31
2023-01-19T08:42:35.687Z,96.32
2023-01-19T08:43:41.261Z,96.34
2023-01-19T08:45:22.045Z,96.20
2023-01-19T08:46:25.684Z,96.16
2023-01-19T08:47:29.718Z,96.09
2023-01-19T08:49:05.849Z,96.00
2023-01-19T08:50:09.199Z,96.03
2023-01-19T08:51:12.606Z,95.99
2023-01-19T08:52:48.432Z,96.10
2023-01-19T08:53:52.169Z,96.08
2023-01-19T08:54:55.622Z,96.13
2023-01-19T08:56:31.286Z,96.36
2023-01-19T08:57:34.925Z,96.44
2023-01-19T08:58:38.977Z,96.46
2023-01-19T09:00:17.803Z,96.48
2023-01-19T09:01:21.536Z,96.43
2023-01-19T09:02:26.355Z,96.53
2023-01-19T09:04:02.581Z,96.60
2023-01-19T09:05:05.874Z,96.56
2023-01-19T09:06:09.279Z,96.39
2023-01-19T09:07:44.746Z,96.35
2023-01-19T09:08:48.613Z,96.21
2023-01-19T09:09:51.872Z,96.09
2023-01-19T09:11:27.712Z,96.12
2023-01-19T09:12:31.197Z,96.08
2023-01-19T09:13:34.920Z,96.02
2023-01-19T09:15:10.673Z,95.96
2023-01-19T09:16:14.273Z,95.85
2023-01-19T09:17:17.788Z,95.78
2023-01-19T09:18:53.661Z,95.71
2023-01-19T09:19:57.035Z,95.68
2023-01-19T09:21:00.509Z,95.70
2023-01-19T09:22:35.991Z,95.58
2023-01-19T09:23:39.720Z,95.59
2023-01-19T09:24:43.188Z,95.59
2023-01-19T09:26:19.123Z,95.55
2023-01-19T09:27:25.349Z,95.57
2023-01-19T09:28:29.025Z,95.71
2023-01-19T09:30:04.921Z,95.69
2023-01-19T09:31:08.640Z,95.71
2023-01-19T09:32:12.737Z,95.84
2023-01-19T09:33:51.315Z,95.87
2023-01-19T09:34:54.856Z,95.87
2023-01-19T09:35:58.212Z,95.84
2023-01-19T09:37:33.804Z,95.76
2023-01-19T09:38:37.449Z,95.59
2023-01-19T09:39:41.196Z,95.61
2023-01-19T09:41:17.389Z,95.52
2023-01-19T09:42:20.942Z,95.56
2023-01-19T09:43:24.350Z,95.52
2023-01-19T09:45:00.302Z,95.67
2023-01-19T09:46:04.433Z,95.68
2023-01-19T09:47:07.943Z,95.60
2023-01-19T09:48:44.027Z,95.61
2023-01-19T09:49:47.479Z,95.61
2023-01-19T09:50:51.121Z,95.64
2023-01-19T09:52:26.710Z,96.21
2023-01-19T09:53:30.113Z,96.07
2023-01-19T09:54:33.728Z,95.96
2023-01-19T09:56:09.195Z,96.05
2023-01-19T09:57:12.536Z,96.05
2023-01-19T09:58:15.978Z,95.96
2023-01-19T09:59:51.431Z,95.78
2023-01-19T10:00:18.425Z,95.77
2023-01-19T10:01:22.330Z,95.80
2023-01-19T10:02:28.275Z,95.94
2023-01-19T10:04:04.762Z,95.76
2023-01-19T10:05:08.343Z,95.51
2023-01-19T10:06:11.723Z,95.40
2023-01-19T10:07:47.235Z,95.52
2023-01-19T10:08:51.190Z,95.38
2023-01-19T10:09:54.797Z,95.36
2023-01-19T10:11:41.868Z,95.43
2023-01-19T10:12:51.285Z,95.41
2023-01-19T10:13:55.127Z,95.39
2023-01-19T10:15:30.779Z,95.76
2023-01-19T10:16:34.625Z,95.79
2023-01-19T10:17:38.183Z,95.69
2023-01-19T10:19:14.617Z,95.49
2023-01-19T10:20:18.218Z,95.44
2023-01-19T10:21:21.917Z,95.31
2023-01-19T10:22:58.078Z,95.33
2023-01-19T10:24:02.164Z,95.15
2023-01-19T10:25:05.813Z,95.03
2023-01-19T10:26:42.088Z,95.00
2023-01-19T10:27:45.567Z,94.73
2023-01-19T10:28:49.154Z,94.64
2023-01-19T10:30:24.760Z,94.51
2023-01-19T10:31:28.884Z,94.60
2023-01-19T10:32:32.995Z,94.39
2023-01-19T10:34:08.884Z,94.35
2023-01-19T10:35:15.991Z,94.46
2023-01-19T10:36:19.381Z,94.48
2023-01-19T10:37:54.957Z,94.14
2023-01-19T10:38:58.429Z,93.42
2023-01-19T10:40:01.903Z,93.68
2023-01-19T10:41:37.824Z,93.50
2023-01-19T10:42:41.576Z,93.33
2023-01-19T10:43:46.180Z,93.30
2023-01-19T10:45:22.307Z,92.86
2023-01-19T10:46:29.243Z,92.76
2023-01-19T10:47:32.999Z,93.02
2023-01-19T10:49:08.953Z,93.02
2023-01-19T10:50:12.765Z,92.87
2023-01-19T10:51:16.561Z,92.16
2023-01-19T10:52:52.432Z,91.75
2023-01-19T10:53:56.710Z,91.64
2023-01-19T10:55:00.669Z,91.52
2023-01-19T10:56:36.574Z,91.09
2023-01-19T10:57:40.307Z,91.24
2023-01-19T10:58:44.196Z,90.79
2023-01-19T11:00:18.110Z,90.69
2023-01-19T11:01:22.129Z,90.16
2023-01-19T11:02:27.159Z,90.16
2023-01-19T11:04:04.343Z,90.78
2023-01-19T11:05:07.992Z,90.71
2023-01-19T11:06:11.385Z,90.72
2023-01-19T11:07:46.884Z,89.64
2023-01-19T11:08:50.455Z,89.19
2023-01-19T11:09:53.981Z,89.34
2023-01-19T11:11:30.036Z,88.48
2023-01-19T11:12:33.458Z,88.63
2023-01-19T11:13:37.193Z,88.93
2023-01-19T11:15:12.837Z,88.83
2023-01-19T11:16:18.153Z,87.85
2023-01-19T11:17:21.833Z,88.10
2023-01-19T11:18:57.174Z,88.12
2023-01-19T11:20:00.749Z,87.83
2023-01-19T11:21:04.149Z,87.91
2023-01-19T11:22:39.707Z,88.61
2023-01-19T11:23:46.459Z,87.92
2023-01-19T11:24:49.936Z,87.85
2023-01-19T11:26:25.928Z,88.10
2023-01-19T11:27:29.283Z,87.87
2023-01-19T11:28:32.968Z,88.14
2023-01-19T11:30:09.250Z,87.96
2023-01-19T11:31:12.924Z,87.10
2023-01-19T11:32:17.076Z,86.29
2023-01-19T11:33:56.136Z,86.33
2023-01-19T11:34:59.393Z,86.47
2023-01-19T11:36:02.873Z,86.44
2023-01-19T11:37:38.405Z,85.74
2023-01-19T11:38:41.832Z,85.21
2023-01-19T11:39:45.361Z,85.32
2023-01-19T11:41:21.023Z,85.93
2023-01-19T11:42:24.363Z,85.90
2023-01-19T11:43:36.655Z,83.94
2023-01-19T11:45:23.120Z,83.91
2023-01-19T11:46:26.992Z,83.65
2023-01-19T11:47:30.964Z,83.25
2023-01-19T11:49:06.925Z,82.94
2023-01-19T11:50:10.348Z,82.83
2023-01-19T11:51:14.017Z,82.72
2023-01-19T11:52:49.675Z,82.87
2023-01-19T11:53:53.138Z,82.91
2023-01-19T11:54:56.532Z,82.96
2023-01-19T11:56:32.071Z,82.18
2023-01-19T11:57:35.379Z,82.07
2023-01-19T11:58:45.473Z,82.83
2023-01-19T12:00:17.511Z,82.75
2023-01-19T12:01:21.368Z,82.39
2023-01-19T12:02:25.199Z,82.67
2023-01-19T12:04:01.392Z,82.70
2023-01-19T12:05:04.885Z,82.10
2023-01-19T12:06:08.145Z,82.11
2023-01-19T12:07:43.839Z,82.35
2023-01-19T12:08:48.884Z,81.06
2023-01-19T12:09:52.351Z,81.16
2023-01-19T12:11:28.163Z,81.49
2023-01-19T12:12:31.740Z,80.66
2023-01-19T12:13:35.324Z,80.79
2023-01-19T12:15:12.319Z,79.40
2023-01-19T12:16:15.974Z,79.98
2023-01-19T12:17:19.889Z,78.66
2023-01-19T12:18:56.434Z,79.66
2023-01-19T12:20:00.985Z,79.54
2023-01-19T12:21:04.570Z,78.98
2023-01-19T12:22:40.651Z,78.25
2023-01-19T12:23:45.966Z,78.24
2023-01-19T12:24:49.622Z,78.11
2023-01-19T12:26:25.439Z,78.35
2023-01-19T12:27:28.732Z,79.25
2023-01-19T12:28:32.139Z,76.94
2023-01-19T12:30:07.914Z,76.33
2023-01-19T12:31:11.737Z,75.86
2023-01-19T12:32:16.376Z,75.39
2023-01-19T12:33:51.806Z,75.63
2023-01-19T12:34:55.242Z,77.08
2023-01-19T12:35:58.518Z,77.11
2023-01-19T12:37:34.144Z,75.68
2023-01-19T12:38:37.626Z,75.32
2023-01-19T12:39:41.270Z,75.21
2023-01-19T12:41:16.892Z,76.36
2023-01-19T12:42:21.414Z,76.55
2023-01-19T12:43:24.872Z,76.23
2023-01-19T12:45:00.657Z,76.87
2023-01-19T12:46:04.247Z,75.58
2023-01-19T12:47:08.034Z,75.57
2023-01-19T12:48:45.131Z,74.55
2023-01-19T12:49:48.843Z,74.60
2023-01-19T12:50:52.496Z,75.64
2023-01-19T12:52:28.190Z,75.62
2023-01-19T12:53:32.600Z,75.41
2023-01-19T12:54:36.038Z,73.79
2023-01-19T12:56:11.907Z,75.21
2023-01-19T12:57:15.460Z,74.73
2023-01-19T12:58:19.243Z,75.32
2023-01-19T12:59:54.864Z,75.85
2023-01-19T13:00:20.308Z,75.85
2023-01-19T13:01:24.598Z,76.12
2023-01-19T13:02:29.059Z,77.05
2023-01-19T13:04:05.384Z,75.74
2023-01-19T13:05:09.241Z,74.36
2023-01-19T13:06:14.066Z,73.36
2023-01-19T13:07:49.761Z,73.32
2023-01-19T13:08:53.531Z,72.78
2023-01-19T13:09:56.990Z,72.96
2023-01-19T13:11:38.434Z,73.04
2023-01-19T13:12:53.127Z,74.11
2023-01-19T13:13:56.639Z,73.67
2023-01-19T13:15:32.109Z,72.25
2023-01-19T13:16:36.830Z,72.14
2023-01-19T13:17:40.058Z,73.03
2023-01-19T13:19:16.079Z,72.41
2023-01-19T13:20:19.710Z,71.93
2023-01-19T13:21:23.116Z,73.45
2023-01-19T13:22:58.678Z,74.16
2023-01-19T13:24:02.085Z,72.35
2023-01-19T13:25:06.115Z,72.01
2023-01-19T13:26:41.978Z,71.72
2023-01-19T13:27:45.577Z,71.44
2023-01-19T13:28:49.278Z,71.39
2023-01-19T13:30:25.274Z,70.69
2023-01-19T13:31:29.327Z,72.00
2023-01-19T13:32:33.420Z,72.82
2023-01-19T13:34:09.189Z,70.86
2023-01-19T13:35:12.836Z,70.94
2023-01-19T13:36:16.327Z,70.81
2023-01-19T13:37:52.168Z,71.53
2023-01-19T13:38:55.656Z,72.41
2023-01-19T13:39:59.702Z,71.76
2023-01-19T13:41:35.669Z,72.85
2023-01-19T13:42:39.307Z,73.06
2023-01-19T13:43:42.838Z,73.95
2023-01-19T13:45:18.447Z,73.93
2023-01-19T13:46:22.243Z,72.74
2023-01-19T13:47:26.447Z,73.86
2023-01-19T13:49:02.198Z,73.55
2023-01-19T13:50:06.140Z,74.20
2023-01-19T13:51:09.528Z,74.98
2023-01-19T13:52:45.424Z,75.52
2023-01-19T13:53:49.000Z,74.33
2023-01-19T13:54:53.361Z,74.36
2023-01-19T13:56:33.582Z,74.25
2023-01-19T13:57:37.272Z,75.40
2023-01-19T13:58:41.224Z,75.44
2023-01-19T14:00:18.501Z,72.25
2023-01-19T14:01:23.406Z,73.08
2023-01-19T14:02:30.038Z,73.83
2023-01-19T14:04:07.021Z,74.53
2023-01-19T14:05:10.751Z,74.16
2023-01-19T14:06:14.575Z,74.16
2023-01-19T14:07:51.160Z,74.30
2023-01-19T14:08:55.016Z,74.93
2023-01-19T14:10:00.766Z,75.44
2023-01-19T14:11:37.172Z,75.69
2023-01-19T14:12:59.116Z,75.10
2023-01-19T14:14:03.453Z,75.08
2023-01-19T14:15:39.079Z,75.29
2023-01-19T14:16:43.838Z,74.85
2023-01-19T14:17:49.951Z,74.42
2023-01-19T14:19:25.337Z,73.72
2023-01-19T14:20:29.556Z,74.23
2023-01-19T14:21:33.171Z,74.38
2023-01-19T14:23:09.146Z,74.96
2023-01-19T14:24:12.679Z,74.55
2023-01-19T14:25:16.399Z,74.47
2023-01-19T14:26:52.468Z,75.12
2023-01-19T14:27:55.980Z,74.72
2023-01-19T14:28:59.571Z,74.99
2023-01-19T14:30:35.344Z,75.67
2023-01-19T14:31:39.478Z,75.77
2023-01-19T14:32:43.188Z,75.71
2023-01-19T14:34:18.747Z,74.88
2023-01-19T14:35:22.402Z,74.52
2023-01-19T14:36:25.948Z,74.10
2023-01-19T14:38:01.908Z,75.72
2023-01-19T14:39:05.532Z,76.02
2023-01-19T14:40:09.243Z,75.87
2023-01-19T14:41:45.009Z,75.50
2023-01-19T14:42:48.404Z,75.95
2023-01-19T14:43:51.946Z,74.91
2023-01-19T14:45:27.945Z,74.74
2023-01-19T14:46:31.713Z,74.93
2023-01-19T14:47:35.710Z,75.37
2023-01-19T14:49:11.502Z,75.91
2023-01-19T14:50:14.994Z,76.08
2023-01-19T14:51:18.777Z,75.87
2023-01-19T14:52:54.293Z,76.26
2023-01-19T14:53:58.795Z,75.69
2023-01-19T14:55:02.503Z,75.59
2023-01-19T14:56:38.849Z,74.43
2023-01-19T14:57:42.317Z,75.26
2023-01-19T14:58:45.945Z,75.74
2023-01-19T15:00:17.835Z,75.22
2023-01-19T15:01:22.070Z,75.95
2023-01-19T15:02:26.511Z,75.03
2023-01-19T15:04:07.512Z,75.10
2023-01-19T15:05:11.887Z,75.03
2023-01-19T15:06:15.248Z,74.80
2023-01-19T15:07:51.382Z,74.82
2023-01-19T15:08:54.750Z,76.01
2023-01-19T15:09:58.196Z,76.08
2023-01-19T15:11:33.967Z,75.78
2023-01-19T15:12:37.443Z,75.57
2023-01-19T15:13:41.283Z,75.18
2023-01-19T15:15:17.280Z,73.97
2023-01-19T15:16:20.867Z,73.53
2023-01-19T15:17:24.774Z,73.27
2023-01-19T15:19:00.634Z,72.03
2023-01-19T15:20:04.476Z,71.65
2023-01-19T15:21:08.519Z,72.27
2023-01-19T15:22:44.059Z,72.16
2023-01-19T15:23:47.774Z,72.26
2023-01-19T15:24:51.120Z,72.05
2023-01-19T15:26:27.954Z,72.36
2023-01-19T15:27:31.352Z,71.65
2023-01-19T15:28:34.679Z,72.06
2023-01-19T15:30:12.940Z,72.79
2023-01-19T15:31:17.048Z,72.81
2023-01-19T15:32:21.079Z,73.10
2023-01-19T15:33:56.610Z,73.34
2023-01-19T15:35:00.382Z,73.64
2023-01-19T15:36:04.368Z,73.95
2023-01-19T15:37:42.634Z,74.11
2023-01-19T15:38:46.335Z,73.88
2023-01-19T15:39:49.996Z,73.71
2023-01-19T15:41:29.232Z,74.09
2023-01-19T15:42:32.895Z,74.06
2023-01-19T15:43:36.504Z,74.09
2023-01-19T15:45:13.007Z,74.59
2023-01-19T15:46:17.017Z,74.43
2023-01-19T15:47:20.419Z,74.60
2023-01-19T15:48:56.313Z,74.56
2023-01-19T15:49:59.541Z,74.78
2023-01-19T15:51:03.268Z,75.03
2023-01-19T15:52:39.089Z,75.56
2023-01-19T15:53:42.806Z,75.73
2023-01-19T15:54:46.565Z,75.66
2023-01-19T15:56:22.529Z,76.00
2023-01-19T15:57:26.383Z,76.06
2023-01-19T15:58:29.863Z,76.27